sensor_id;sensor_type;location;lat;lon;timestamp;P1;durP1;ratioP1;P2;durP2;ratioP2
6095;SDS011;25081;42.698;23.298;2022-09-09T00:00:11;11.73;;;9.00;;
6095;SDS011;25081;42.698;23.298;2022-09-09T00:02:25;12.30;;;9.70;;
6095;SDS011;25081;42.698;23.298;2022-09-09T00:04:35;14.03;;;10.90;;
6095;SDS011;25081;42.698;23.298;2022-09-09T00:06:48;24.23;;;17.30;;
6095;SDS011;25081;42.698;23.298;2022-09-09T00:09:00;15.00;;;10.67;;
6095;SDS011;25081;42.698;23.298;2022-09-09T00:11:11;13.80;;;11.50;;
6095;SDS011;25081;42.698;23.298;2022-09-09T00:13:22;12.20;;;10.20;;
6095;SDS011;25081;42.698;23.298;2022-09-09T00:15:33;14.83;;;10.40;;
6095;SDS011;25081;42.698;23.298;2022-09-09T00:17:45;15.93;;;10.53;;
6095;SDS011;25081;42.698;23.298;2022-09-09T00:19:55;14.73;;;10.13;;
6095;SDS011;25081;42.698;23.298;2022-09-09T00:22:08;11.97;;;9.77;;
6095;SDS011;25081;42.698;23.298;2022-09-09T00:24:23;12.97;;;10.80;;
6095;SDS011;25081;42.698;23.298;2022-09-09T00:26:31;14.60;;;10.67;;
6095;SDS011;25081;42.698;23.298;2022-09-09T00:28:43;27.23;;;17.13;;
6095;SDS011;25081;42.698;23.298;2022-09-09T00:30:52;31.53;;;19.27;;
6095;SDS011;25081;42.698;23.298;2022-09-09T00:33:08;15.83;;;12.00;;
6095;SDS011;25081;42.698;23.298;2022-09-09T00:35:21;15.33;;;12.13;;
6095;SDS011;25081;42.698;23.298;2022-09-09T00:37:31;14.70;;;11.00;;
6095;SDS011;25081;42.698;23.298;2022-09-09T00:39:41;13.43;;;10.73;;
6095;SDS011;25081;42.698;23.298;2022-09-09T00:41:55;15.47;;;10.67;;
6095;SDS011;25081;42.698;23.298;2022-09-09T00:44:10;12.80;;;10.47;;
6095;SDS011;25081;42.698;23.298;2022-09-09T00:46:26;14.10;;;10.87;;
6095;SDS011;25081;42.698;23.298;2022-09-09T00:48:42;14.00;;;11.23;;
6095;SDS011;25081;42.698;23.298;2022-09-09T00:50:53;12.10;;;10.67;;
6095;SDS011;25081;42.698;23.298;2022-09-09T00:53:09;13.20;;;9.73;;
6095;SDS011;25081;42.698;23.298;2022-09-09T00:55:21;15.67;;;11.10;;
6095;SDS011;25081;42.698;23.298;2022-09-09T00:57:31;13.90;;;10.20;;
6095;SDS011;25081;42.698;23.298;2022-09-09T00:59:44;15.20;;;11.10;;
6095;SDS011;25081;42.698;23.298;2022-09-09T01:01:55;12.17;;;10.13;;
6095;SDS011;25081;42.698;23.298;2022-09-09T01:04:07;14.37;;;10.77;;
6095;SDS011;25081;42.698;23.298;2022-09-09T01:06:18;14.43;;;10.27;;
6095;SDS011;25081;42.698;23.298;2022-09-09T01:08:32;13.53;;;10.80;;
6095;SDS011;25081;42.698;23.298;2022-09-09T01:10:51;12.43;;;10.07;;
6095;SDS011;25081;42.698;23.298;2022-09-09T01:13:02;14.73;;;9.80;;
6095;SDS011;25081;42.698;23.298;2022-09-09T01:15:15;12.13;;;10.03;;
6095;SDS011;25081;42.698;23.298;2022-09-09T01:17:24;15.93;;;11.40;;
6095;SDS011;25081;42.698;23.298;2022-09-09T01:19:37;10.90;;;9.60;;
6095;SDS011;25081;42.698;23.298;2022-09-09T01:21:49;12.87;;;10.33;;
6095;SDS011;25081;42.698;23.298;2022-09-09T01:24:08;10.67;;;9.17;;
6095;SDS011;25081;42.698;23.298;2022-09-09T01:26:24;15.07;;;11.60;;
6095;SDS011;25081;42.698;23.298;2022-09-09T01:28:36;12.90;;;9.90;;
6095;SDS011;25081;42.698;23.298;2022-09-09T01:30:46;12.60;;;11.13;;
6095;SDS011;25081;42.698;23.298;2022-09-09T01:32:57;11.93;;;9.63;;
6095;SDS011;25081;42.698;23.298;2022-09-09T01:35:08;13.10;;;9.80;;
6095;SDS011;25081;42.698;23.298;2022-09-09T01:37:18;17.60;;;10.80;;
6095;SDS011;25081;42.698;23.298;2022-09-09T01:39:29;13.20;;;10.43;;
6095;SDS011;25081;42.698;23.298;2022-09-09T01:41:39;13.23;;;10.53;;
6095;SDS011;25081;42.698;23.298;2022-09-09T01:43:50;14.53;;;11.27;;
6095;SDS011;25081;42.698;23.298;2022-09-09T01:46:01;13.37;;;10.50;;
6095;SDS011;25081;42.698;23.298;2022-09-09T01:48:11;14.90;;;11.03;;
6095;SDS011;25081;42.698;23.298;2022-09-09T01:50:21;19.73;;;11.57;;
6095;SDS011;25081;42.698;23.298;2022-09-09T01:52:32;15.00;;;11.50;;
6095;SDS011;25081;42.698;23.298;2022-09-09T01:54:42;12.30;;;10.63;;
6095;SDS011;25081;42.698;23.298;2022-09-09T01:56:55;15.27;;;11.93;;
6095;SDS011;25081;42.698;23.298;2022-09-09T01:59:09;11.13;;;9.97;;
6095;SDS011;25081;42.698;23.298;2022-09-09T02:01:26;13.67;;;11.43;;
6095;SDS011;25081;42.698;23.298;2022-09-09T02:03:36;13.80;;;11.20;;
6095;SDS011;25081;42.698;23.298;2022-09-09T02:05:49;14.77;;;10.90;;
6095;SDS011;25081;42.698;23.298;2022-09-09T02:08:00;12.20;;;10.63;;
6095;SDS011;25081;42.698;23.298;2022-09-09T02:10:11;14.93;;;10.30;;
6095;SDS011;25081;42.698;23.298;2022-09-09T02:12:21;13.43;;;10.60;;
6095;SDS011;25081;42.698;23.298;2022-09-09T02:14:33;13.80;;;10.63;;
6095;SDS011;25081;42.698;23.298;2022-09-09T02:16:44;14.33;;;10.93;;
6095;SDS011;25081;42.698;23.298;2022-09-09T02:18:54;12.70;;;10.40;;
6095;SDS011;25081;42.698;23.298;2022-09-09T02:21:04;11.57;;;10.00;;
6095;SDS011;25081;42.698;23.298;2022-09-09T02:23:15;13.70;;;10.13;;
6095;SDS011;25081;42.698;23.298;2022-09-09T02:25:26;14.10;;;10.93;;
6095;SDS011;25081;42.698;23.298;2022-09-09T02:27:36;15.67;;;12.07;;
6095;SDS011;25081;42.698;23.298;2022-09-09T02:29:46;15.03;;;11.83;;
6095;SDS011;25081;42.698;23.298;2022-09-09T02:31:57;16.77;;;11.07;;
6095;SDS011;25081;42.698;23.298;2022-09-09T02:34:08;13.07;;;10.57;;
6095;SDS011;25081;42.698;23.298;2022-09-09T02:36:18;14.10;;;10.20;;
6095;SDS011;25081;42.698;23.298;2022-09-09T02:38:29;16.87;;;11.93;;
6095;SDS011;25081;42.698;23.298;2022-09-09T02:40:39;14.33;;;9.93;;
6095;SDS011;25081;42.698;23.298;2022-09-09T02:42:50;14.03;;;10.40;;
6095;SDS011;25081;42.698;23.298;2022-09-09T02:45:00;13.37;;;10.43;;
6095;SDS011;25081;42.698;23.298;2022-09-09T02:47:16;15.30;;;10.13;;
6095;SDS011;25081;42.698;23.298;2022-09-09T02:49:28;11.90;;;10.37;;
6095;SDS011;25081;42.698;23.298;2022-09-09T02:51:40;14.37;;;11.47;;
6095;SDS011;25081;42.698;23.298;2022-09-09T02:53:52;12.90;;;9.90;;
6095;SDS011;25081;42.698;23.298;2022-09-09T02:56:02;12.83;;;10.30;;
6095;SDS011;25081;42.698;23.298;2022-09-09T02:58:12;12.07;;;10.30;;
6095;SDS011;25081;42.698;23.298;2022-09-09T03:00:26;18.90;;;12.03;;
6095;SDS011;25081;42.698;23.298;2022-09-09T03:02:36;17.43;;;11.40;;
6095;SDS011;25081;42.698;23.298;2022-09-09T03:04:47;12.93;;;9.83;;
6095;SDS011;25081;42.698;23.298;2022-09-09T03:06:58;15.40;;;11.13;;
6095;SDS011;25081;42.698;23.298;2022-09-09T03:09:08;12.63;;;10.30;;
6095;SDS011;25081;42.698;23.298;2022-09-09T03:11:19;12.87;;;11.20;;
6095;SDS011;25081;42.698;23.298;2022-09-09T03:13:29;12.23;;;10.87;;
6095;SDS011;25081;42.698;23.298;2022-09-09T03:15:40;12.57;;;10.57;;
6095;SDS011;25081;42.698;23.298;2022-09-09T03:17:50;16.60;;;10.23;;
6095;SDS011;25081;42.698;23.298;2022-09-09T03:20:01;13.23;;;10.63;;
6095;SDS011;25081;42.698;23.298;2022-09-09T03:22:12;13.83;;;10.80;;
6095;SDS011;25081;42.698;23.298;2022-09-09T03:24:22;14.43;;;11.30;;
6095;SDS011;25081;42.698;23.298;2022-09-09T03:26:33;13.40;;;11.03;;
6095;SDS011;25081;42.698;23.298;2022-09-09T03:28:43;12.20;;;10.03;;
6095;SDS011;25081;42.698;23.298;2022-09-09T03:30:58;12.63;;;10.57;;
6095;SDS011;25081;42.698;23.298;2022-09-09T03:33:09;16.40;;;12.47;;
6095;SDS011;25081;42.698;23.298;2022-09-09T03:35:20;19.67;;;17.03;;
6095;SDS011;25081;42.698;23.298;2022-09-09T03:37:30;12.20;;;10.40;;
6095;SDS011;25081;42.698;23.298;2022-09-09T03:39:41;16.17;;;10.70;;
6095;SDS011;25081;42.698;23.298;2022-09-09T03:41:51;13.53;;;11.30;;
6095;SDS011;25081;42.698;23.298;2022-09-09T03:44:03;13.80;;;11.10;;
6095;SDS011;25081;42.698;23.298;2022-09-09T03:46:13;14.63;;;11.47;;
6095;SDS011;25081;42.698;23.298;2022-09-09T03:48:24;13.80;;;10.67;;
6095;SDS011;25081;42.698;23.298;2022-09-09T03:50:34;14.20;;;12.00;;
6095;SDS011;25081;42.698;23.298;2022-09-09T03:52:45;17.73;;;12.30;;
6095;SDS011;25081;42.698;23.298;2022-09-09T03:54:55;17.53;;;11.30;;
6095;SDS011;25081;42.698;23.298;2022-09-09T03:57:06;22.23;;;12.10;;
6095;SDS011;25081;42.698;23.298;2022-09-09T03:59:16;11.90;;;10.67;;
6095;SDS011;25081;42.698;23.298;2022-09-09T04:01:27;15.87;;;11.73;;
6095;SDS011;25081;42.698;23.298;2022-09-09T04:03:37;11.80;;;10.60;;
6095;SDS011;25081;42.698;23.298;2022-09-09T04:05:49;13.03;;;11.27;;
6095;SDS011;25081;42.698;23.298;2022-09-09T04:07:59;15.83;;;11.33;;
6095;SDS011;25081;42.698;23.298;2022-09-09T04:10:10;13.93;;;10.73;;
6095;SDS011;25081;42.698;23.298;2022-09-09T04:12:21;12.53;;;10.53;;
6095;SDS011;25081;42.698;23.298;2022-09-09T04:14:32;14.03;;;11.37;;
6095;SDS011;25081;42.698;23.298;2022-09-09T04:16:42;14.13;;;11.40;;
6095;SDS011;25081;42.698;23.298;2022-09-09T04:18:53;16.60;;;12.33;;
6095;SDS011;25081;42.698;23.298;2022-09-09T04:21:04;19.30;;;12.40;;
6095;SDS011;25081;42.698;23.298;2022-09-09T04:23:15;15.33;;;11.37;;
6095;SDS011;25081;42.698;23.298;2022-09-09T04:25:25;15.23;;;11.80;;
6095;SDS011;25081;42.698;23.298;2022-09-09T04:27:36;14.20;;;12.70;;
6095;SDS011;25081;42.698;23.298;2022-09-09T04:29:46;17.83;;;11.50;;
6095;SDS011;25081;42.698;23.298;2022-09-09T04:31:57;16.40;;;11.97;;
6095;SDS011;25081;42.698;23.298;2022-09-09T04:34:07;16.43;;;12.13;;
6095;SDS011;25081;42.698;23.298;2022-09-09T04:36:18;17.07;;;11.40;;
6095;SDS011;25081;42.698;23.298;2022-09-09T04:38:28;15.47;;;11.90;;
6095;SDS011;25081;42.698;23.298;2022-09-09T04:40:39;14.90;;;11.33;;
6095;SDS011;25081;42.698;23.298;2022-09-09T04:42:51;14.97;;;11.10;;
6095;SDS011;25081;42.698;23.298;2022-09-09T04:45:02;15.57;;;12.40;;
6095;SDS011;25081;42.698;23.298;2022-09-09T04:47:14;19.27;;;12.13;;
6095;SDS011;25081;42.698;23.298;2022-09-09T04:49:24;16.10;;;12.00;;
6095;SDS011;25081;42.698;23.298;2022-09-09T04:51:35;15.43;;;11.87;;
6095;SDS011;25081;42.698;23.298;2022-09-09T04:53:45;17.73;;;11.60;;
6095;SDS011;25081;42.698;23.298;2022-09-09T04:56:01;14.67;;;9.93;;
6095;SDS011;25081;42.698;23.298;2022-09-09T04:58:12;16.10;;;11.43;;
6095;SDS011;25081;42.698;23.298;2022-09-09T05:00:23;13.97;;;11.30;;
6095;SDS011;25081;42.698;23.298;2022-09-09T05:02:36;17.60;;;11.53;;
6095;SDS011;25081;42.698;23.298;2022-09-09T05:04:47;14.13;;;10.20;;
6095;SDS011;25081;42.698;23.298;2022-09-09T05:06:58;10.97;;;9.13;;
6095;SDS011;25081;42.698;23.298;2022-09-09T05:09:08;14.83;;;9.90;;
6095;SDS011;25081;42.698;23.298;2022-09-09T05:11:20;12.70;;;9.30;;
6095;SDS011;25081;42.698;23.298;2022-09-09T05:13:30;11.83;;;9.33;;
6095;SDS011;25081;42.698;23.298;2022-09-09T05:15:40;11.10;;;9.90;;
6095;SDS011;25081;42.698;23.298;2022-09-09T05:17:51;13.43;;;9.67;;
6095;SDS011;25081;42.698;23.298;2022-09-09T05:20:02;16.95;;;10.13;;
6095;SDS011;25081;42.698;23.298;2022-09-09T05:22:14;12.30;;;9.60;;
6095;SDS011;25081;42.698;23.298;2022-09-09T05:24:29;13.83;;;8.93;;
6095;SDS011;25081;42.698;23.298;2022-09-09T05:26:39;12.73;;;10.07;;
6095;SDS011;25081;42.698;23.298;2022-09-09T05:28:49;14.20;;;11.10;;
6095;SDS011;25081;42.698;23.298;2022-09-09T05:31:01;14.60;;;10.80;;
6095;SDS011;25081;42.698;23.298;2022-09-09T05:33:11;10.07;;;9.13;;
6095;SDS011;25081;42.698;23.298;2022-09-09T05:35:21;10.70;;;9.23;;
6095;SDS011;25081;42.698;23.298;2022-09-09T05:37:32;14.37;;;9.83;;
6095;SDS011;25081;42.698;23.298;2022-09-09T05:39:43;10.40;;;9.30;;
6095;SDS011;25081;42.698;23.298;2022-09-09T05:41:53;12.30;;;9.67;;
6095;SDS011;25081;42.698;23.298;2022-09-09T05:44:04;11.50;;;9.73;;
6095;SDS011;25081;42.698;23.298;2022-09-09T05:46:16;11.57;;;10.37;;
6095;SDS011;25081;42.698;23.298;2022-09-09T05:48:27;14.43;;;9.70;;
6095;SDS011;25081;42.698;23.298;2022-09-09T05:50:37;12.17;;;10.73;;
6095;SDS011;25081;42.698;23.298;2022-09-09T05:52:48;15.97;;;11.57;;
6095;SDS011;25081;42.698;23.298;2022-09-09T05:54:58;15.10;;;10.87;;
6095;SDS011;25081;42.698;23.298;2022-09-09T05:57:09;15.80;;;12.37;;
6095;SDS011;25081;42.698;23.298;2022-09-09T05:59:19;17.37;;;12.87;;
6095;SDS011;25081;42.698;23.298;2022-09-09T06:01:31;15.73;;;11.60;;
6095;SDS011;25081;42.698;23.298;2022-09-09T06:03:42;21.80;;;11.80;;
6095;SDS011;25081;42.698;23.298;2022-09-09T06:05:57;15.53;;;12.43;;
6095;SDS011;25081;42.698;23.298;2022-09-09T06:08:08;18.20;;;13.20;;
6095;SDS011;25081;42.698;23.298;2022-09-09T06:10:19;17.70;;;12.17;;
6095;SDS011;25081;42.698;23.298;2022-09-09T06:12:30;13.80;;;11.83;;
6095;SDS011;25081;42.698;23.298;2022-09-09T06:14:40;16.90;;;12.77;;
6095;SDS011;25081;42.698;23.298;2022-09-09T06:16:51;15.43;;;12.10;;
6095;SDS011;25081;42.698;23.298;2022-09-09T06:19:01;15.67;;;12.53;;
6095;SDS011;25081;42.698;23.298;2022-09-09T06:21:14;14.27;;;11.83;;
6095;SDS011;25081;42.698;23.298;2022-09-09T06:23:23;14.17;;;11.83;;
6095;SDS011;25081;42.698;23.298;2022-09-09T06:25:34;18.73;;;13.47;;
6095;SDS011;25081;42.698;23.298;2022-09-09T06:27:48;18.17;;;11.50;;
6095;SDS011;25081;42.698;23.298;2022-09-09T06:29:59;15.30;;;10.50;;
6095;SDS011;25081;42.698;23.298;2022-09-09T06:32:10;12.17;;;10.80;;
6095;SDS011;25081;42.698;23.298;2022-09-09T06:34:21;16.03;;;11.70;;
6095;SDS011;25081;42.698;23.298;2022-09-09T06:36:32;12.97;;;10.73;;
6095;SDS011;25081;42.698;23.298;2022-09-09T06:38:42;17.20;;;10.97;;
6095;SDS011;25081;42.698;23.298;2022-09-09T06:40:53;14.50;;;11.10;;
6095;SDS011;25081;42.698;23.298;2022-09-09T06:43:03;11.40;;;10.20;;
6095;SDS011;25081;42.698;23.298;2022-09-09T06:45:14;11.57;;;10.23;;
6095;SDS011;25081;42.698;23.298;2022-09-09T06:47:24;13.20;;;10.07;;
6095;SDS011;25081;42.698;23.298;2022-09-09T06:49:35;11.17;;;10.03;;
6095;SDS011;25081;42.698;23.298;2022-09-09T06:51:45;11.40;;;8.97;;
6095;SDS011;25081;42.698;23.298;2022-09-09T06:53:57;10.33;;;7.83;;
6095;SDS011;25081;42.698;23.298;2022-09-09T06:56:17;11.50;;;8.37;;
6095;SDS011;25081;42.698;23.298;2022-09-09T06:58:27;11.20;;;8.37;;
6095;SDS011;25081;42.698;23.298;2022-09-09T07:00:38;8.37;;;7.47;;
6095;SDS011;25081;42.698;23.298;2022-09-09T07:02:49;8.77;;;7.87;;
6095;SDS011;25081;42.698;23.298;2022-09-09T07:04:59;8.60;;;7.47;;
6095;SDS011;25081;42.698;23.298;2022-09-09T07:07:10;8.07;;;7.10;;
6095;SDS011;25081;42.698;23.298;2022-09-09T07:09:20;11.73;;;8.53;;
6095;SDS011;25081;42.698;23.298;2022-09-09T07:11:33;10.50;;;8.33;;
6095;SDS011;25081;42.698;23.298;2022-09-09T07:13:41;11.30;;;7.80;;
6095;SDS011;25081;42.698;23.298;2022-09-09T07:15:52;9.70;;;7.73;;
6095;SDS011;25081;42.698;23.298;2022-09-09T07:18:03;9.60;;;7.70;;
6095;SDS011;25081;42.698;23.298;2022-09-09T07:20:14;13.27;;;8.17;;
6095;SDS011;25081;42.698;23.298;2022-09-09T07:22:24;9.33;;;6.70;;
6095;SDS011;25081;42.698;23.298;2022-09-09T07:24:35;7.73;;;6.50;;
6095;SDS011;25081;42.698;23.298;2022-09-09T07:26:46;7.33;;;5.97;;
6095;SDS011;25081;42.698;23.298;2022-09-09T07:28:56;7.93;;;7.07;;
6095;SDS011;25081;42.698;23.298;2022-09-09T07:31:07;10.13;;;7.20;;
6095;SDS011;25081;42.698;23.298;2022-09-09T07:33:17;8.67;;;6.00;;
6095;SDS011;25081;42.698;23.298;2022-09-09T07:35:28;9.03;;;8.13;;
6095;SDS011;25081;42.698;23.298;2022-09-09T07:37:39;9.67;;;7.80;;
6095;SDS011;25081;42.698;23.298;2022-09-09T07:39:50;9.10;;;6.10;;
6095;SDS011;25081;42.698;23.298;2022-09-09T07:42:00;8.47;;;6.50;;
6095;SDS011;25081;42.698;23.298;2022-09-09T07:44:11;6.77;;;6.07;;
6095;SDS011;25081;42.698;23.298;2022-09-09T07:46:22;10.10;;;6.57;;
6095;SDS011;25081;42.698;23.298;2022-09-09T07:48:32;9.30;;;7.10;;
6095;SDS011;25081;42.698;23.298;2022-09-09T07:50:42;9.73;;;8.13;;
6095;SDS011;25081;42.698;23.298;2022-09-09T07:52:53;9.47;;;6.70;;
6095;SDS011;25081;42.698;23.298;2022-09-09T07:55:04;8.53;;;6.30;;
6095;SDS011;25081;42.698;23.298;2022-09-09T07:57:15;12.50;;;10.00;;
6095;SDS011;25081;42.698;23.298;2022-09-09T07:59:26;12.53;;;10.30;;
6095;SDS011;25081;42.698;23.298;2022-09-09T08:01:37;8.97;;;6.20;;
6095;SDS011;25081;42.698;23.298;2022-09-09T08:03:51;7.17;;;5.90;;
6095;SDS011;25081;42.698;23.298;2022-09-09T08:06:01;6.90;;;5.23;;
6095;SDS011;25081;42.698;23.298;2022-09-09T08:08:11;16.47;;;12.67;;
6095;SDS011;25081;42.698;23.298;2022-09-09T08:10:22;9.83;;;7.53;;
6095;SDS011;25081;42.698;23.298;2022-09-09T08:12:35;6.40;;;5.50;;
6095;SDS011;25081;42.698;23.298;2022-09-09T08:14:45;6.10;;;5.30;;
6095;SDS011;25081;42.698;23.298;2022-09-09T08:16:56;8.50;;;5.33;;
6095;SDS011;25081;42.698;23.298;2022-09-09T08:19:06;6.23;;;5.30;;
6095;SDS011;25081;42.698;23.298;2022-09-09T08:21:31;6.13;;;5.53;;
6095;SDS011;25081;42.698;23.298;2022-09-09T08:23:41;6.57;;;5.50;;
6095;SDS011;25081;42.698;23.298;2022-09-09T08:25:51;8.30;;;5.40;;
6095;SDS011;25081;42.698;23.298;2022-09-09T08:28:02;6.03;;;5.33;;
6095;SDS011;25081;42.698;23.298;2022-09-09T08:30:13;7.13;;;5.20;;
6095;SDS011;25081;42.698;23.298;2022-09-09T08:32:24;13.97;;;12.47;;
6095;SDS011;25081;42.698;23.298;2022-09-09T08:34:35;7.27;;;6.57;;
6095;SDS011;25081;42.698;23.298;2022-09-09T08:36:45;9.80;;;6.77;;
6095;SDS011;25081;42.698;23.298;2022-09-09T08:38:56;7.10;;;5.30;;
6095;SDS011;25081;42.698;23.298;2022-09-09T08:43:46;7.60;;;5.97;;
6095;SDS011;25081;42.698;23.298;2022-09-09T08:45:57;7.67;;;6.40;;
6095;SDS011;25081;42.698;23.298;2022-09-09T08:48:13;6.30;;;5.47;;
6095;SDS011;25081;42.698;23.298;2022-09-09T08:50:28;14.53;;;5.33;;
6095;SDS011;25081;42.698;23.298;2022-09-09T08:52:39;6.80;;;5.80;;
6095;SDS011;25081;42.698;23.298;2022-09-09T08:54:49;6.30;;;5.70;;
6095;SDS011;25081;42.698;23.298;2022-09-09T08:56:59;6.53;;;5.57;;
6095;SDS011;25081;42.698;23.298;2022-09-09T08:59:10;10.20;;;4.93;;
6095;SDS011;25081;42.698;23.298;2022-09-09T09:01:33;16.37;;;12.10;;
6095;SDS011;25081;42.698;23.298;2022-09-09T09:03:46;10.33;;;6.20;;
6095;SDS011;25081;42.698;23.298;2022-09-09T09:05:59;12.73;;;9.20;;
6095;SDS011;25081;42.698;23.298;2022-09-09T09:08:12;7.43;;;5.77;;
6095;SDS011;25081;42.698;23.298;2022-09-09T09:10:24;7.43;;;6.00;;
6095;SDS011;25081;42.698;23.298;2022-09-09T09:12:37;8.37;;;6.27;;
6095;SDS011;25081;42.698;23.298;2022-09-09T09:14:47;16.30;;;9.27;;
6095;SDS011;25081;42.698;23.298;2022-09-09T09:16:58;11.50;;;7.30;;
6095;SDS011;25081;42.698;23.298;2022-09-09T09:19:08;7.23;;;6.00;;
6095;SDS011;25081;42.698;23.298;2022-09-09T09:21:20;8.23;;;6.90;;
6095;SDS011;25081;42.698;23.298;2022-09-09T09:23:31;10.53;;;6.90;;
6095;SDS011;25081;42.698;23.298;2022-09-09T09:25:41;9.30;;;6.40;;
6095;SDS011;25081;42.698;23.298;2022-09-09T09:27:55;8.13;;;6.90;;
6095;SDS011;25081;42.698;23.298;2022-09-09T09:30:12;6.97;;;6.27;;
6095;SDS011;25081;42.698;23.298;2022-09-09T09:32:23;10.27;;;6.40;;
6095;SDS011;25081;42.698;23.298;2022-09-09T09:34:34;10.13;;;7.50;;
6095;SDS011;25081;42.698;23.298;2022-09-09T09:36:45;9.00;;;6.27;;
6095;SDS011;25081;42.698;23.298;2022-09-09T09:38:56;10.63;;;7.50;;
6095;SDS011;25081;42.698;23.298;2022-09-09T09:41:06;7.93;;;7.10;;
6095;SDS011;25081;42.698;23.298;2022-09-09T09:43:18;7.23;;;6.27;;
6095;SDS011;25081;42.698;23.298;2022-09-09T09:45:32;11.20;;;7.20;;
6095;SDS011;25081;42.698;23.298;2022-09-09T09:47:41;8.63;;;6.50;;
6095;SDS011;25081;42.698;23.298;2022-09-09T09:49:52;9.07;;;6.20;;
6095;SDS011;25081;42.698;23.298;2022-09-09T09:52:04;7.17;;;6.47;;
6095;SDS011;25081;42.698;23.298;2022-09-09T09:54:17;7.80;;;6.67;;
6095;SDS011;25081;42.698;23.298;2022-09-09T09:56:27;15.47;;;7.97;;
6095;SDS011;25081;42.698;23.298;2022-09-09T09:58:46;18.70;;;6.90;;
6095;SDS011;25081;42.698;23.298;2022-09-09T10:00:49;11.53;;;7.20;;
6095;SDS011;25081;42.698;23.298;2022-09-09T10:03:00;10.50;;;7.67;;
6095;SDS011;25081;42.698;23.298;2022-09-09T10:05:14;8.20;;;7.13;;
6095;SDS011;25081;42.698;23.298;2022-09-09T10:07:24;13.03;;;7.97;;
6095;SDS011;25081;42.698;23.298;2022-09-09T10:09:34;9.67;;;6.80;;
6095;SDS011;25081;42.698;23.298;2022-09-09T10:11:46;7.90;;;6.83;;
6095;SDS011;25081;42.698;23.298;2022-09-09T10:13:57;8.93;;;7.33;;
6095;SDS011;25081;42.698;23.298;2022-09-09T10:16:10;10.47;;;7.37;;
6095;SDS011;25081;42.698;23.298;2022-09-09T10:18:44;7.23;;;6.27;;
6095;SDS011;25081;42.698;23.298;2022-09-09T10:20:58;8.87;;;6.70;;
6095;SDS011;25081;42.698;23.298;2022-09-09T10:23:09;6.93;;;6.27;;
6095;SDS011;25081;42.698;23.298;2022-09-09T10:27:47;8.43;;;6.87;;
6095;SDS011;25081;42.698;23.298;2022-09-09T10:30:05;9.00;;;7.60;;
6095;SDS011;25081;42.698;23.298;2022-09-09T10:32:24;11.40;;;7.60;;
6095;SDS011;25081;42.698;23.298;2022-09-09T10:34:50;10.57;;;6.33;;
6095;SDS011;25081;42.698;23.298;2022-09-09T10:37:04;7.10;;;6.40;;
6095;SDS011;25081;42.698;23.298;2022-09-09T10:39:16;13.03;;;7.10;;
6095;SDS011;25081;42.698;23.298;2022-09-09T10:41:31;12.33;;;7.07;;
6095;SDS011;25081;42.698;23.298;2022-09-09T10:43:49;11.07;;;7.23;;
6095;SDS011;25081;42.698;23.298;2022-09-09T10:46:08;9.40;;;8.50;;
6095;SDS011;25081;42.698;23.298;2022-09-09T10:48:25;8.40;;;7.53;;
6095;SDS011;25081;42.698;23.298;2022-09-09T10:50:43;9.80;;;8.80;;
6095;SDS011;25081;42.698;23.298;2022-09-09T10:52:56;12.10;;;8.00;;
6095;SDS011;25081;42.698;23.298;2022-09-09T10:57:21;9.20;;;7.13;;
6095;SDS011;25081;42.698;23.298;2022-09-09T10:59:33;9.70;;;7.67;;
6095;SDS011;25081;42.698;23.298;2022-09-09T11:01:45;8.73;;;7.80;;
6095;SDS011;25081;42.698;23.298;2022-09-09T11:03:55;8.50;;;6.83;;
6095;SDS011;25081;42.698;23.298;2022-09-09T11:06:06;8.50;;;6.50;;
6095;SDS011;25081;42.698;23.298;2022-09-09T11:08:17;11.00;;;7.53;;
6095;SDS011;25081;42.698;23.298;2022-09-09T11:10:29;14.23;;;7.90;;
6095;SDS011;25081;42.698;23.298;2022-09-09T11:12:38;11.13;;;6.90;;
6095;SDS011;25081;42.698;23.298;2022-09-09T11:14:50;8.70;;;7.30;;
6095;SDS011;25081;42.698;23.298;2022-09-09T11:17:00;11.17;;;7.87;;
6095;SDS011;25081;42.698;23.298;2022-09-09T11:19:15;9.30;;;7.60;;
6095;SDS011;25081;42.698;23.298;2022-09-09T11:21:25;11.63;;;8.23;;
6095;SDS011;25081;42.698;23.298;2022-09-09T11:23:37;13.50;;;7.70;;
6095;SDS011;25081;42.698;23.298;2022-09-09T11:25:47;15.13;;;7.27;;
6095;SDS011;25081;42.698;23.298;2022-09-09T11:28:01;11.43;;;7.80;;
6095;SDS011;25081;42.698;23.298;2022-09-09T11:30:17;11.17;;;7.33;;
6095;SDS011;25081;42.698;23.298;2022-09-09T11:35:23;13.13;;;7.50;;
6095;SDS011;25081;42.698;23.298;2022-09-09T11:37:51;9.10;;;7.80;;
6095;SDS011;25081;42.698;23.298;2022-09-09T11:40:09;10.93;;;8.10;;
6095;SDS011;25081;42.698;23.298;2022-09-09T11:42:29;8.30;;;7.03;;
6095;SDS011;25081;42.698;23.298;2022-09-09T11:44:40;10.50;;;7.30;;
6095;SDS011;25081;42.698;23.298;2022-09-09T11:46:50;18.50;;;8.13;;
6095;SDS011;25081;42.698;23.298;2022-09-09T11:49:01;8.03;;;7.23;;
6095;SDS011;25081;42.698;23.298;2022-09-09T11:51:12;8.23;;;7.40;;
6095;SDS011;25081;42.698;23.298;2022-09-09T11:53:22;11.63;;;7.63;;
6095;SDS011;25081;42.698;23.298;2022-09-09T11:55:33;9.47;;;8.07;;
6095;SDS011;25081;42.698;23.298;2022-09-09T11:57:44;13.67;;;7.37;;
6095;SDS011;25081;42.698;23.298;2022-09-09T11:59:54;9.37;;;6.90;;
6095;SDS011;25081;42.698;23.298;2022-09-09T12:02:10;8.83;;;7.90;;
6095;SDS011;25081;42.698;23.298;2022-09-09T12:04:27;9.30;;;7.63;;
6095;SDS011;25081;42.698;23.298;2022-09-09T12:06:42;9.10;;;7.90;;
6095;SDS011;25081;42.698;23.298;2022-09-09T12:08:53;8.63;;;7.63;;
6095;SDS011;25081;42.698;23.298;2022-09-09T12:11:03;9.00;;;8.10;;
6095;SDS011;25081;42.698;23.298;2022-09-09T12:13:17;9.00;;;7.20;;
6095;SDS011;25081;42.698;23.298;2022-09-09T12:15:27;8.70;;;7.27;;
6095;SDS011;25081;42.698;23.298;2022-09-09T12:17:41;10.10;;;7.40;;
6095;SDS011;25081;42.698;23.298;2022-09-09T12:20:00;9.93;;;7.67;;
6095;SDS011;25081;42.698;23.298;2022-09-09T12:22:15;8.60;;;7.70;;
6095;SDS011;25081;42.698;23.298;2022-09-09T12:24:29;9.00;;;7.97;;
6095;SDS011;25081;42.698;23.298;2022-09-09T12:26:40;10.13;;;7.90;;
6095;SDS011;25081;42.698;23.298;2022-09-09T12:28:56;10.40;;;7.60;;
6095;SDS011;25081;42.698;23.298;2022-09-09T12:31:10;9.03;;;7.17;;
6095;SDS011;25081;42.698;23.298;2022-09-09T12:33:19;9.17;;;8.23;;
6095;SDS011;25081;42.698;23.298;2022-09-09T12:35:29;16.63;;;10.27;;
6095;SDS011;25081;42.698;23.298;2022-09-09T12:37:48;12.30;;;10.67;;
6095;SDS011;25081;42.698;23.298;2022-09-09T12:39:59;10.33;;;8.23;;
6095;SDS011;25081;42.698;23.298;2022-09-09T12:42:16;14.70;;;9.50;;
6095;SDS011;25081;42.698;23.298;2022-09-09T12:44:29;14.70;;;9.10;;
6095;SDS011;25081;42.698;23.298;2022-09-09T12:46:41;11.10;;;8.67;;
6095;SDS011;25081;42.698;23.298;2022-09-09T12:48:51;9.23;;;8.23;;
6095;SDS011;25081;42.698;23.298;2022-09-09T12:51:02;8.97;;;7.60;;
6095;SDS011;25081;42.698;23.298;2022-09-09T12:53:14;11.33;;;8.60;;
6095;SDS011;25081;42.698;23.298;2022-09-09T12:55:24;10.90;;;8.63;;
6095;SDS011;25081;42.698;23.298;2022-09-09T12:57:35;9.10;;;8.20;;
6095;SDS011;25081;42.698;23.298;2022-09-09T12:59:45;11.13;;;8.90;;
6095;SDS011;25081;42.698;23.298;2022-09-09T13:01:57;11.60;;;8.90;;
6095;SDS011;25081;42.698;23.298;2022-09-09T13:04:17;12.17;;;8.47;;
6095;SDS011;25081;42.698;23.298;2022-09-09T13:06:29;18.27;;;11.63;;
6095;SDS011;25081;42.698;23.298;2022-09-09T13:08:39;12.33;;;8.20;;